createdAt,value
2022-07-28T00:00:08.243Z,100464.09
2022-07-28T00:02:35.878Z,100468.56
2022-07-28T00:05:04.223Z,100466.78
2022-07-28T00:07:31.652Z,100475.69
2022-07-28T00:10:00.754Z,100474.81
2022-07-28T00:12:28.427Z,100476.59
2022-07-28T00:14:55.586Z,100472.97
2022-07-28T00:17:22.644Z,100472.06
2022-07-28T00:19:50.852Z,100477.44
2022-07-28T00:22:18.771Z,100469.38
2022-07-28T00:24:45.900Z,100473.81
2022-07-28T00:27:19.168Z,100474.75
2022-07-28T00:29:50.363Z,100481.88
2022-07-28T00:32:20.585Z,100474.75
2022-07-28T00:34:47.715Z,100485.41
2022-07-28T00:37:15.142Z,100480.94
2022-07-28T00:39:43.658Z,100481.84
2022-07-28T00:42:10.795Z,100469.38
2022-07-28T00:44:41.917Z,100480.03
2022-07-28T00:47:09.315Z,100480.03
2022-07-28T00:49:36.364Z,100486.28
2022-07-28T00:52:06.381Z,100487.13
2022-07-28T00:54:34.194Z,100476.41
2022-07-28T00:57:01.238Z,100490.63
2022-07-28T00:59:28.216Z,100485.22
2022-07-28T01:01:56.377Z,100481.59
2022-07-28T01:04:24.781Z,100483.44
2022-07-28T01:07:21.775Z,100495.03
2022-07-28T01:09:53.667Z,100478.97
2022-07-28T01:12:33.011Z,100492.34
2022-07-28T01:15:19.905Z,100493.25
2022-07-28T01:18:22.956Z,100486.91
2022-07-28T01:21:05.280Z,100490.53
2022-07-28T01:23:32.121Z,100496.66
2022-07-28T01:26:34.950Z,100493.06
2022-07-28T01:29:55.319Z,100494.84
2022-07-28T01:32:28.748Z,100499.38
2022-07-28T01:35:18.698Z,100490.38
2022-07-28T01:37:54.033Z,100485.94
2022-07-28T01:40:28.111Z,100492.00
2022-07-28T01:43:00.334Z,100484.91
2022-07-28T01:45:29.510Z,100491.19
2022-07-28T01:48:00.039Z,100492.97
2022-07-28T01:50:28.626Z,100491.03
2022-07-28T01:52:58.101Z,100486.63
2022-07-28T01:55:26.327Z,100483.13
2022-07-28T01:57:56.510Z,100484.81
2022-07-28T02:00:26.258Z,100489.16
2022-07-28T02:02:57.081Z,100484.63
2022-07-28T02:05:26.145Z,100487.13
2022-07-28T02:07:55.604Z,100492.72
2022-07-28T02:10:24.107Z,100482.75
2022-07-28T02:12:53.073Z,100494.31
2022-07-28T02:15:22.291Z,100488.06
2022-07-28T02:17:52.006Z,100487.16
2022-07-28T02:20:20.083Z,100498.69
2022-07-28T02:22:51.233Z,100497.81
2022-07-28T02:25:20.007Z,100494.31
2022-07-28T02:27:58.478Z,100496.00
2022-07-28T02:30:34.713Z,100494.91
2022-07-28T02:33:14.965Z,100496.72
2022-07-28T02:36:07.977Z,100494.88
2022-07-28T02:38:45.642Z,100506.56
2022-07-28T02:41:28.109Z,100489.50
2022-07-28T02:44:01.854Z,100496.66
2022-07-28T02:46:52.811Z,100498.31
2022-07-28T02:49:31.548Z,100488.56
2022-07-28T02:52:01.853Z,100500.16
2022-07-28T02:54:32.953Z,100500.31
2022-07-28T02:57:01.286Z,100510.03
2022-07-28T02:59:29.038Z,100512.81
2022-07-28T03:01:57.075Z,100529.53
2022-07-28T03:04:44.383Z,100525.00
2022-07-28T03:07:12.599Z,100521.59
2022-07-28T03:09:45.948Z,100521.38
2022-07-28T03:12:13.954Z,100519.69
2022-07-28T03:14:42.008Z,100517.84
2022-07-28T03:17:09.549Z,100521.34
2022-07-28T03:19:36.899Z,100520.41
2022-07-28T03:22:05.111Z,100513.41
2022-07-28T03:24:38.024Z,100526.88
2022-07-28T03:27:29.144Z,100529.75
2022-07-28T03:30:05.429Z,100532.66
2022-07-28T03:32:37.000Z,100526.56
2022-07-28T03:35:06.443Z,100532.16
2022-07-28T03:38:23.925Z,100542.28
2022-07-28T03:40:54.942Z,100536.34
2022-07-28T03:43:25.962Z,100538.13
2022-07-28T03:45:53.055Z,100548.69
2022-07-28T03:48:23.510Z,100543.06
2022-07-28T03:50:50.534Z,100546.16
2022-07-28T03:53:24.452Z,100558.03
2022-07-28T03:55:52.569Z,100554.34
2022-07-28T03:58:21.814Z,100554.59
2022-07-28T04:00:53.732Z,100559.81
2022-07-28T04:03:35.117Z,100556.47
2022-07-28T04:06:08.775Z,100558.72
2022-07-28T04:08:35.782Z,100554.50
2022-07-28T04:11:03.048Z,100558.97
2022-07-28T04:13:32.119Z,100553.47
2022-07-28T04:16:00.318Z,100562.34
2022-07-28T04:18:27.349Z,100566.88
2022-07-28T04:20:55.801Z,100561.56
2022-07-28T04:23:24.073Z,100563.09
2022-07-28T04:25:51.261Z,100572.38
2022-07-28T04:28:18.230Z,100565.09
2022-07-28T04:30:45.849Z,100562.63
2022-07-28T04:33:13.262Z,100575.16
2022-07-28T04:35:40.817Z,100567.81
2022-07-28T04:38:08.359Z,100574.88
2022-07-28T04:40:35.571Z,100567.91
2022-07-28T04:43:03.992Z,100568.63
2022-07-28T04:45:31.524Z,100576.09
2022-07-28T04:47:58.606Z,100568.91
2022-07-28T04:50:25.812Z,100571.16
2022-07-28T04:52:52.844Z,100569.44
2022-07-28T04:55:20.133Z,100567.84
2022-07-28T04:57:47.140Z,100571.91
2022-07-28T05:00:15.423Z,100572.00
2022-07-28T05:02:44.804Z,100566.34
2022-07-28T05:05:13.078Z,100573.28
2022-07-28T05:07:41.440Z,100561.19
2022-07-28T05:10:11.225Z,100568.34
2022-07-28T05:12:38.540Z,100569.84
2022-07-28T05:15:08.027Z,100571.56
2022-07-28T05:17:36.976Z,100574.06
2022-07-28T05:20:06.612Z,100569.03
2022-07-28T05:22:48.431Z,100576.84
2022-07-28T05:25:21.189Z,100575.97
2022-07-28T05:27:49.744Z,100576.13
2022-07-28T05:30:18.716Z,100582.13
2022-07-28T05:32:45.871Z,100580.09
2022-07-28T05:35:13.405Z,100579.63
2022-07-28T05:37:40.597Z,100578.50
2022-07-28T05:40:14.071Z,100587.25
2022-07-28T05:42:43.312Z,100581.06
2022-07-28T05:45:15.842Z,100577.03
2022-07-28T05:47:54.929Z,100591.31
2022-07-28T05:50:26.123Z,100588.34
2022-07-28T05:52:53.192Z,100587.59
2022-07-28T05:55:20.199Z,100593.94
2022-07-28T05:57:47.463Z,100601.94
2022-07-28T06:00:18.810Z,100593.03
2022-07-28T06:02:49.644Z,100592.66
2022-07-28T06:05:19.371Z,100586.28
2022-07-28T06:07:48.462Z,100592.50
2022-07-28T06:10:22.055Z,100594.59
2022-07-28T06:12:56.237Z,100601.75
2022-07-28T06:15:26.480Z,100598.97
2022-07-28T06:17:57.970Z,100599.69
2022-07-28T06:20:27.766Z,100600.31
2022-07-28T06:22:56.034Z,100603.63
2022-07-28T06:25:27.113Z,100602.47
2022-07-28T06:27:59.997Z,100600.06
2022-07-28T06:30:28.234Z,100601.59
2022-07-28T06:32:55.606Z,100598.09
2022-07-28T06:35:23.081Z,100599.28
2022-07-28T06:37:52.111Z,100599.00
2022-07-28T06:40:20.668Z,100609.81
2022-07-28T06:42:48.127Z,100605.38
2022-07-28T06:45:20.700Z,100605.28
2022-07-28T06:47:52.525Z,100607.16
2022-07-28T06:50:25.657Z,100610.91
2022-07-28T06:52:59.106Z,100614.59
2022-07-28T06:55:28.443Z,100608.81
2022-07-28T06:58:03.988Z,100610.19
2022-07-28T07:00:31.574Z,100612.50
2022-07-28T07:03:00.573Z,100616.22
2022-07-28T07:05:32.095Z,100605.47
2022-07-28T07:07:59.508Z,100624.09
2022-07-28T07:10:26.724Z,100627.03
2022-07-28T07:12:54.012Z,100619.19
2022-07-28T07:15:21.057Z,100613.88
2022-07-28T07:17:48.064Z,100612.06
2022-07-28T07:20:17.185Z,100609.66
2022-07-28T07:22:46.848Z,100608.16
2022-07-28T07:25:17.737Z,100612.88
2022-07-28T07:27:45.522Z,100611.09
2022-07-28T07:30:14.855Z,100611.69
2022-07-28T07:32:42.013Z,100616.00
2022-07-28T07:35:09.811Z,100620.47
2022-07-28T07:37:36.795Z,100621.59
2022-07-28T07:40:05.991Z,100615.13
2022-07-28T07:42:33.183Z,100602.44
2022-07-28T07:45:00.340Z,100617.63
2022-07-28T07:47:27.450Z,100617.63
2022-07-28T07:49:54.402Z,100622.09
2022-07-28T07:52:21.439Z,100614.72
2022-07-28T07:54:48.641Z,100615.41
2022-07-28T07:57:15.704Z,100609.84
2022-07-28T07:59:42.738Z,100615.38
2022-07-28T08:02:09.833Z,100614.22
2022-07-28T08:04:38.492Z,100613.75
2022-07-28T08:07:06.746Z,100617.66
2022-07-28T08:09:34.745Z,100625.13
2022-07-28T08:12:01.908Z,100631.13
2022-07-28T08:14:29.043Z,100625.97
2022-07-28T08:16:56.910Z,100613.16
2022-07-28T08:19:24.113Z,100621.72
2022-07-28T08:21:52.097Z,100622.91
2022-07-28T08:24:32.758Z,100624.25
2022-07-28T08:27:02.781Z,100622.34
2022-07-28T08:29:29.871Z,100627.59
2022-07-28T08:31:57.840Z,100621.81
2022-07-28T08:34:27.866Z,100625.88
2022-07-28T08:37:00.831Z,100624.91
2022-07-28T08:39:27.899Z,100618.91
2022-07-28T08:41:58.010Z,100621.91
2022-07-28T08:44:57.492Z,100628.44
2022-07-28T08:47:40.269Z,100616.91
2022-07-28T08:50:14.403Z,100621.69
2022-07-28T08:52:44.437Z,100615.44
2022-07-28T08:55:19.174Z,100623.81
2022-07-28T08:57:46.822Z,100616.91
2022-07-28T09:00:14.305Z,100635.91
2022-07-28T09:02:52.179Z,100632.91
2022-07-28T09:05:24.076Z,100628.84
2022-07-28T09:07:55.454Z,100630.44
2022-07-28T09:10:23.370Z,100631.44
2022-07-28T09:12:50.945Z,100629.56
2022-07-28T09:15:17.957Z,100632.00
2022-07-28T09:17:44.960Z,100637.44
2022-07-28T09:20:12.941Z,100633.59
2022-07-28T09:23:42.131Z,100643.75
2022-07-28T09:26:12.879Z,100639.78
2022-07-28T09:28:59.025Z,100643.94
2022-07-28T09:31:28.826Z,100631.06
2022-07-28T09:34:06.565Z,100641.13
2022-07-28T09:36:41.974Z,100628.84
2022-07-28T09:39:09.370Z,100632.31
2022-07-28T09:41:55.275Z,100645.75
2022-07-28T09:44:24.753Z,100646.16
2022-07-28T09:46:52.220Z,100639.97
2022-07-28T09:49:21.959Z,100620.09
2022-07-28T09:52:02.672Z,100634.19
2022-07-28T09:54:29.676Z,100632.75
2022-07-28T09:56:56.862Z,100628.78
2022-07-28T09:59:24.241Z,100643.28
2022-07-28T10:02:02.536Z,100646.38
2022-07-28T10:04:41.140Z,100631.09
2022-07-28T10:07:14.158Z,100636.56
2022-07-28T10:09:41.560Z,100634.41
2022-07-28T10:12:23.392Z,100641.50
2022-07-28T10:14:53.546Z,100633.53
2022-07-28T10:17:34.346Z,100625.22
2022-07-28T10:20:07.063Z,100628.41
2022-07-28T10:22:42.837Z,100620.50
2022-07-28T10:25:14.410Z,100626.06
2022-07-28T10:27:45.033Z,100623.72
2022-07-28T10:30:13.426Z,100623.00
2022-07-28T10:32:44.685Z,100624.72
2022-07-28T10:35:15.359Z,100620.00
2022-07-28T10:38:04.005Z,100623.66
2022-07-28T10:40:48.234Z,100618.06
2022-07-28T10:43:15.741Z,100615.66
2022-07-28T10:48:31.548Z,100613.41
2022-07-28T10:50:59.501Z,100609.78
2022-07-28T10:53:32.303Z,100615.81
2022-07-28T10:56:07.428Z,100622.13
2022-07-28T10:59:08.314Z,100625.66
2022-07-28T11:01:50.111Z,100617.34
2022-07-28T11:04:55.385Z,100618.13
2022-07-28T11:07:22.421Z,100625.38
2022-07-28T11:09:49.743Z,100617.50
2022-07-28T11:12:37.257Z,100617.59
2022-07-28T11:15:27.596Z,100612.81
2022-07-28T11:18:10.066Z,100617.06
2022-07-28T11:20:58.606Z,100614.31
2022-07-28T11:23:46.708Z,100620.16
2022-07-28T11:26:27.667Z,100622.34
2022-07-28T11:29:00.426Z,100622.28
2022-07-28T11:31:46.020Z,100624.03
2022-07-28T11:34:15.449Z,100627.38
2022-07-28T11:37:00.580Z,100610.63
2022-07-28T11:39:43.286Z,100617.78
2022-07-28T11:42:35.823Z,100610.72
2022-07-28T11:45:34.257Z,100609.66
2022-07-28T11:48:23.632Z,100616.19
2022-07-28T11:51:05.917Z,100613.34
2022-07-28T11:53:53.025Z,100605.66
2022-07-28T11:56:29.279Z,100605.34
2022-07-28T11:58:58.645Z,100609.19
2022-07-28T12:01:25.721Z,100597.97
2022-07-28T12:03:59.080Z,100595.16
2022-07-28T12:06:35.869Z,100589.03
2022-07-28T12:09:06.612Z,100591.09
2022-07-28T12:11:41.786Z,100589.97
2022-07-28T12:14:12.296Z,100597.63
2022-07-28T12:16:45.483Z,100593.56
2022-07-28T12:19:16.825Z,100589.06
2022-07-28T12:21:50.291Z,100588.06
2022-07-28T12:24:21.387Z,100591.38
2022-07-28T12:26:50.346Z,100591.38
2022-07-28T12:29:20.459Z,100589.47
2022-07-28T12:32:04.929Z,100587.97
2022-07-28T12:34:38.567Z,100589.06
2022-07-28T12:37:09.905Z,100579.94
2022-07-28T12:39:41.996Z,100586.84
2022-07-28T12:42:13.590Z,100586.50
2022-07-28T12:44:47.596Z,100584.22
2022-07-28T12:47:17.752Z,100578.22
2022-07-28T12:49:45.373Z,100582.84
2022-07-28T12:52:24.751Z,100582.22
2022-07-28T12:54:56.131Z,100582.72
2022-07-28T12:57:44.524Z,100587.84
2022-07-28T13:00:19.235Z,100591.44
2022-07-28T13:02:46.989Z,100585.78
2022-07-28T13:05:55.185Z,100586.59
2022-07-28T13:08:25.215Z,100591.47
2022-07-28T13:10:57.369Z,100581.34
2022-07-28T13:13:26.304Z,100574.94
2022-07-28T13:16:16.665Z,100585.34
2022-07-28T13:18:53.445Z,100585.38
2022-07-28T13:21:58.682Z,100588.41
2022-07-28T13:24:28.874Z,100589.16
2022-07-28T13:26:57.198Z,100594.91
2022-07-28T13:29:24.247Z,100589.75
2022-07-28T13:31:54.711Z,100595.81
2022-07-28T13:34:21.941Z,100586.06
2022-07-28T13:36:48.931Z,100588.69
2022-07-28T13:39:15.880Z,100582.00
2022-07-28T13:41:56.643Z,100590.91
2022-07-28T13:44:26.561Z,100586.28
2022-07-28T13:46:55.278Z,100586.50
2022-07-28T13:49:22.890Z,100597.28
2022-07-28T13:51:51.060Z,100590.44
2022-07-28T13:54:21.475Z,100584.81
2022-07-28T13:56:49.013Z,100591.47
2022-07-28T13:59:16.794Z,100585.25
2022-07-28T14:01:49.956Z,100590.47
2022-07-28T14:04:21.742Z,100590.69
2022-07-28T14:06:49.109Z,100589.13
2022-07-28T14:09:18.380Z,100579.50
2022-07-28T14:11:50.130Z,100583.91
2022-07-28T14:14:25.238Z,100585.56
2022-07-28T14:16:54.626Z,100588.28
2022-07-28T14:19:27.996Z,100582.31
2022-07-28T14:22:10.512Z,100578.84
2022-07-28T14:24:40.462Z,100579.47
2022-07-28T14:27:07.436Z,100584.44
2022-07-28T14:29:34.369Z,100584.00
2022-07-28T14:32:01.444Z,100580.31
2022-07-28T14:34:28.415Z,100582.00
2022-07-28T14:36:56.450Z,100583.13
2022-07-28T14:39:23.454Z,100581.59
2022-07-28T14:41:50.837Z,100591.56
2022-07-28T14:44:23.983Z,100592.28
2022-07-28T14:46:51.423Z,100585.88
2022-07-28T14:49:19.009Z,100593.31
2022-07-28T14:51:46.063Z,100593.28
2022-07-28T14:54:13.488Z,100598.56
2022-07-28T14:56:40.689Z,100596.22
2022-07-28T14:59:07.705Z,100596.97
2022-07-28T15:01:36.496Z,100595.31
2022-07-28T15:04:04.801Z,100587.09
2022-07-28T15:06:31.778Z,100593.41
2022-07-28T15:08:58.808Z,100582.59
2022-07-28T15:11:26.343Z,100585.22
2022-07-28T15:13:53.409Z,100584.22
2022-07-28T15:16:20.532Z,100590.91
2022-07-28T15:18:47.514Z,100590.31
2022-07-28T15:21:17.358Z,100585.41
2022-07-28T15:23:45.357Z,100581.00
2022-07-28T15:26:12.850Z,100580.97
2022-07-28T15:28:40.008Z,100583.88
2022-07-28T15:31:08.393Z,100580.38
2022-07-28T15:33:42.475Z,100580.78
2022-07-28T15:36:15.179Z,100572.03
2022-07-28T15:38:42.138Z,100582.72
2022-07-28T15:41:15.514Z,100580.41
2022-07-28T15:43:42.609Z,100583.13
2022-07-28T15:46:12.988Z,100573.00
2022-07-28T15:48:43.778Z,100581.97
2022-07-28T15:51:11.031Z,100580.91
2022-07-28T15:53:38.707Z,100581.47
2022-07-28T15:56:08.888Z,100582.84
2022-07-28T15:58:35.962Z,100583.69
2022-07-28T16:01:03.691Z,100582.00
2022-07-28T16:03:31.815Z,100576.44
2022-07-28T16:05:59.183Z,100582.19
2022-07-28T16:08:26.777Z,100584.72
2022-07-28T16:10:55.010Z,100578.72
2022-07-28T16:13:31.373Z,100582.75
2022-07-28T16:16:14.023Z,100579.75
2022-07-28T16:18:43.074Z,100574.78
2022-07-28T16:21:11.123Z,100583.44
2022-07-28T16:23:38.327Z,100585.22
2022-07-28T16:26:08.027Z,100592.00
2022-07-28T16:28:36.125Z,100596.69
2022-07-28T16:31:03.205Z,100591.81
2022-07-28T16:33:33.077Z,100585.53
2022-07-28T16:36:02.240Z,100590.47
2022-07-28T16:38:29.819Z,100583.69
2022-07-28T16:40:57.332Z,100582.19
2022-07-28T16:43:24.607Z,100580.69
2022-07-28T16:45:51.776Z,100575.75
2022-07-28T16:48:18.725Z,100575.16
2022-07-28T16:50:46.272Z,100575.53
2022-07-28T16:53:14.030Z,100579.38
2022-07-28T16:55:42.315Z,100560.84
2022-07-28T16:58:09.685Z,100574.78
2022-07-28T17:00:36.681Z,100572.44
2022-07-28T17:03:03.682Z,100589.38
2022-07-28T17:05:30.684Z,100585.44
2022-07-28T17:07:58.411Z,100587.31
2022-07-28T17:10:27.674Z,100583.50
2022-07-28T17:12:55.305Z,100586.38
2022-07-28T17:15:23.538Z,100587.09
2022-07-28T17:17:53.523Z,100590.91
2022-07-28T17:20:21.163Z,100590.28
2022-07-28T17:22:48.830Z,100589.13
2022-07-28T17:25:45.863Z,100592.63
2022-07-28T17:28:04.760Z,100592.94
2022-07-28T17:30:33.159Z,100600.78
2022-07-28T17:33:08.081Z,100590.66
2022-07-28T17:35:37.407Z,100596.66
2022-07-28T17:38:08.360Z,100594.81
2022-07-28T17:40:38.173Z,100597.19
2022-07-28T17:43:05.245Z,100592.84
2022-07-28T17:45:32.254Z,100599.63
2022-07-28T17:47:59.231Z,100602.69
2022-07-28T17:50:26.202Z,100602.59
2022-07-28T17:52:53.176Z,100611.25
2022-07-28T17:55:57.996Z,100613.16
2022-07-28T17:58:28.744Z,100609.16
2022-07-28T18:01:09.790Z,100613.88
2022-07-28T18:03:59.190Z,100611.72
2022-07-28T18:06:35.199Z,100607.78
2022-07-28T18:09:07.400Z,100624.84
2022-07-28T18:11:57.681Z,100613.34
2022-07-28T18:14:28.211Z,100616.59
2022-07-28T18:16:55.792Z,100624.81
2022-07-28T18:19:22.876Z,100623.34
2022-07-28T18:21:50.046Z,100623.75
2022-07-28T18:24:18.225Z,100626.56
2022-07-28T18:26:45.571Z,100626.09
2022-07-28T18:29:12.531Z,100626.50
2022-07-28T18:31:45.929Z,100628.50
2022-07-28T18:34:14.114Z,100614.44
2022-07-28T18:36:41.390Z,100628.72
2022-07-28T18:39:08.663Z,100632.50
2022-07-28T18:41:46.837Z,100631.00
2022-07-28T18:44:16.727Z,100644.31
2022-07-28T18:46:44.450Z,100640.06
2022-07-28T18:49:11.595Z,100640.22
2022-07-28T18:51:38.691Z,100643.88
2022-07-28T18:54:05.726Z,100650.34
2022-07-28T18:56:33.381Z,100648.84
2022-07-28T18:59:00.333Z,100644.47
2022-07-28T19:01:27.357Z,100642.84
2022-07-28T19:03:54.377Z,100649.25
2022-07-28T19:06:21.416Z,100656.56
2022-07-28T19:08:48.511Z,100650.41
2022-07-28T19:11:19.643Z,100652.91
2022-07-28T19:13:47.774Z,100654.78
2022-07-28T19:16:14.991Z,100655.81
2022-07-28T19:18:42.079Z,100656.16
2022-07-28T19:21:09.241Z,100655.22
2022-07-28T19:23:36.189Z,100654.53
2022-07-28T19:26:03.871Z,100649.22
2022-07-28T19:28:30.933Z,100647.84
2022-07-28T19:31:10.380Z,100652.28
2022-07-28T19:33:42.928Z,100655.16
2022-07-28T19:36:14.262Z,100652.56
2022-07-28T19:38:42.346Z,100651.63
2022-07-28T19:41:10.474Z,100651.72
2022-07-28T19:43:37.707Z,100651.72
2022-07-28T19:46:05.397Z,100658.94
2022-07-28T19:48:34.129Z,100661.56
2022-07-28T19:51:01.349Z,100661.59
2022-07-28T19:53:31.754Z,100656.19
2022-07-28T19:55:59.580Z,100658.16
2022-07-28T19:58:26.770Z,100668.03
2022-07-28T20:00:56.381Z,100656.47
2022-07-28T20:04:00.725Z,100654.69
2022-07-28T20:06:11.949Z,100664.53
2022-07-28T20:08:39.346Z,100668.31
2022-07-28T20:11:06.669Z,100670.13
2022-07-28T20:13:33.664Z,100670.28
2022-07-28T20:16:00.769Z,100680.38
2022-07-28T20:18:27.854Z,100677.72
2022-07-28T20:20:54.820Z,100680.50
2022-07-28T20:23:22.214Z,100677.03
2022-07-28T20:25:49.181Z,100680.78
2022-07-28T20:28:16.164Z,100666.47
2022-07-28T20:30:43.396Z,100679.81
2022-07-28T20:33:10.383Z,100690.56
2022-07-28T20:35:37.357Z,100684.28
2022-07-28T20:38:05.982Z,100681.66
2022-07-28T20:40:32.975Z,100682.44
2022-07-28T20:43:00.265Z,100685.94
2022-07-28T20:45:27.276Z,100688.72
2022-07-28T20:47:54.282Z,100685.34
2022-07-28T20:50:21.750Z,100677.34
2022-07-28T20:52:48.880Z,100692.59
2022-07-28T20:55:15.886Z,100689.03
2022-07-28T20:57:42.855Z,100685.59
2022-07-28T21:00:21.238Z,100688.31
2022-07-28T21:02:48.453Z,100692.84
2022-07-28T21:08:05.105Z,100698.22
2022-07-28T21:10:33.997Z,100699.19
2022-07-28T21:13:01.190Z,100710.00
2022-07-28T21:15:28.269Z,100712.78
2022-07-28T21:17:57.081Z,100710.09
2022-07-28T21:20:24.835Z,100709.13
2022-07-28T21:22:52.241Z,100715.44
2022-07-28T21:25:19.502Z,100709.19
2022-07-28T21:28:05.466Z,100722.59
2022-07-28T21:30:32.622Z,100727.03
2022-07-28T21:32:59.638Z,100728.78
2022-07-28T21:35:26.983Z,100733.34
2022-07-28T21:37:54.105Z,100745.03
2022-07-28T21:40:21.240Z,100743.22
2022-07-28T21:42:48.290Z,100741.44
2022-07-28T21:45:15.315Z,100750.44
2022-07-28T21:47:42.372Z,100745.91
2022-07-28T21:50:10.623Z,100754.91
2022-07-28T21:52:38.446Z,100751.44
2022-07-28T21:55:08.249Z,100754.19
2022-07-28T21:57:38.527Z,100755.09
2022-07-28T22:00:09.636Z,100766.69
2022-07-28T22:02:36.748Z,100762.28
2022-07-28T22:05:04.756Z,100768.53
2022-07-28T22:07:31.861Z,100773.91
2022-07-28T22:09:58.868Z,100775.72
2022-07-28T22:12:25.945Z,100772.09
2022-07-28T22:14:52.900Z,100761.34
2022-07-28T22:17:19.864Z,100761.38
2022-07-28T22:19:46.927Z,100765.88
2022-07-28T22:22:14.008Z,100764.09
2022-07-28T22:24:40.977Z,100769.44
2022-07-28T22:27:08.047Z,100768.47
2022-07-28T22:29:35.037Z,100774.75
2022-07-28T22:32:02.175Z,100772.94
2022-07-28T22:34:29.572Z,100783.63
2022-07-28T22:36:56.719Z,100775.56
2022-07-28T22:39:23.659Z,100782.75
2022-07-28T22:41:50.589Z,100780.09
2022-07-28T22:44:17.904Z,100787.16
2022-07-28T22:46:46.184Z,100796.09
2022-07-28T22:49:13.303Z,100800.56
2022-07-28T22:51:40.719Z,100803.19
2022-07-28T22:54:16.264Z,100798.69
2022-07-28T22:56:43.958Z,100802.28
2022-07-28T22:59:11.053Z,100802.25
2022-07-28T23:01:41.478Z,100801.41
2022-07-28T23:04:08.472Z,100800.44
2022-07-28T23:06:35.587Z,100805.75
2022-07-28T23:09:02.646Z,100796.78
2022-07-28T23:11:29.747Z,100804.78
2022-07-28T23:13:56.711Z,100808.31
2022-07-28T23:16:23.866Z,100804.72
2022-07-28T23:18:50.854Z,100807.47
2022-07-28T23:21:17.888Z,100808.22
2022-07-28T23:23:44.901Z,100800.09
2022-07-28T23:26:12.073Z,100811.66
2022-07-28T23:28:39.160Z,100812.50
2022-07-28T23:31:06.375Z,100818.78
2022-07-28T23:33:55.469Z,100820.56
2022-07-28T23:36:27.308Z,100812.50
2022-07-28T23:38:59.172Z,100812.56
2022-07-28T23:41:28.384Z,100814.34
2022-07-28T23:43:55.488Z,100816.03
2022-07-28T23:46:23.119Z,100809.66
2022-07-28T23:48:50.805Z,100816.66
2022-07-28T23:51:18.229Z,100821.91
2022-07-28T23:53:45.308Z,100819.25
2022-07-28T23:56:15.125Z,100816.44
2022-07-28T23:58:42.598Z,100818.28
